Time;durP1;ratioP1;P1;durP2;ratioP2;P2;SDS_P1;SDS_P2;PMS_P1;PMS_P2;Temp;Humidity;BMP_temperature;BMP_pressure;BME280_temperature;BME280_humidity;BME280_pressure;Samples;Min_cycle;Max_cycle;Signal;HPM_P1;HPM_P2
2021/09/17 00:00:37;;;;;;;3.03;1.60;;;18.80;96.20;;;;;;5031670;28;20635;-65
2021/09/17 00:03:02;;;;;;;3.83;1.90;;;18.80;96.20;;;;;;5055384;28;20029;-65
2021/09/17 00:05:29;;;;;;;6.15;2.20;;;18.80;96.20;;;;;;5043481;28;20104;-65
2021/09/17 00:07:54;;;;;;;3.15;1.65;;;18.80;96.20;;;;;;5047245;28;20161;-64
2021/09/17 00:10:21;;;;;;;4.05;2.00;;;18.80;96.30;;;;;;5032111;28;20469;-64
2021/09/17 00:12:47;;;;;;;7.07;2.15;;;18.80;96.30;;;;;;5032285;28;20072;-65
2021/09/17 00:15:13;;;;;;;3.35;2.47;;;18.80;96.30;;;;;;5040669;28;20067;-65
2021/09/17 00:17:39;;;;;;;4.82;1.70;;;18.80;96.30;;;;;;5051052;28;20025;-65
2021/09/17 00:20:07;;;;;;;2.97;1.75;;;18.80;96.30;;;;;;5032195;28;20025;-65
2021/09/17 00:22:32;;;;;;;2.45;1.83;;;18.80;96.30;;;;;;5037951;28;20022;-65
2021/09/17 00:24:58;;;;;;;6.93;2.03;;;18.80;96.20;;;;;;5031495;28;20086;-65
2021/09/17 00:27:24;;;;;;;4.93;2.15;;;18.80;96.30;;;;;;5031932;28;20029;-65
2021/09/17 00:29:49;;;;;;;4.28;1.92;;;18.80;96.30;;;;;;5036652;28;20477;-65
2021/09/17 00:32:15;;;;;;;6.65;1.95;;;18.80;96.40;;;;;;5064936;28;20112;-65
2021/09/17 00:34:40;;;;;;;4.78;2.10;;;18.80;96.40;;;;;;5035502;28;20033;-65
2021/09/17 00:37:06;;;;;;;3.88;1.70;;;18.80;96.40;;;;;;5052485;28;20132;-65
2021/09/17 00:39:31;;;;;;;5.18;2.60;;;18.80;96.50;;;;;;5041234;28;20055;-65
2021/09/17 00:41:57;;;;;;;2.90;1.92;;;18.80;96.40;;;;;;5052527;28;20020;-64
2021/09/17 00:44:27;;;;;;;3.72;1.80;;;18.80;96.50;;;;;;5022396;28;20116;-64
2021/09/17 00:46:54;;;;;;;3.70;1.90;;;18.80;96.50;;;;;;5052318;28;20511;-65
2021/09/17 00:49:20;;;;;;;5.28;2.03;;;18.70;96.50;;;;;;5033729;28;20034;-64
2021/09/17 00:51:47;;;;;;;5.20;1.95;;;18.70;96.50;;;;;;5032346;28;20021;-64
2021/09/17 00:54:13;;;;;;;4.20;1.80;;;18.70;96.60;;;;;;5038717;28;20049;-65
2021/09/17 00:56:38;;;;;;;4.93;2.78;;;18.80;96.60;;;;;;5030881;28;20053;-65
2021/09/17 00:59:04;;;;;;;5.88;1.90;;;18.70;96.50;;;;;;5031446;28;20537;-65
2021/09/17 01:01:30;;;;;;;2.97;1.85;;;18.70;96.50;;;;;;5040848;28;20406;-64
2021/09/17 01:03:55;;;;;;;4.05;2.10;;;18.70;96.50;;;;;;5050816;28;20032;-65
2021/09/17 01:06:21;;;;;;;3.92;1.63;;;18.70;96.40;;;;;;5032566;28;20134;-65
2021/09/17 01:08:46;;;;;;;4.32;1.65;;;18.70;96.50;;;;;;5031795;28;20025;-65
2021/09/17 01:11:12;;;;;;;5.22;2.00;;;18.70;96.50;;;;;;5030185;28;20473;-65
2021/09/17 01:13:39;;;;;;;4.93;2.63;;;18.70;96.50;;;;;;5036912;28;20386;-65
2021/09/17 01:16:04;;;;;;;4.75;1.60;;;18.70;96.50;;;;;;5040228;28;20060;-65
2021/09/17 01:18:30;;;;;;;6.50;2.13;;;18.70;96.50;;;;;;5031000;28;20505;-65
2021/09/17 01:21:03;;;;;;;3.33;2.00;;;18.70;96.50;;;;;;5030836;28;20025;-65
2021/09/17 01:23:29;;;;;;;4.78;1.77;;;18.70;96.50;;;;;;5036602;28;20037;-65
2021/09/17 01:25:55;;;;;;;3.40;1.60;;;18.70;96.50;;;;;;5038977;28;20048;-65
2021/09/17 01:28:27;;;;;;;5.10;2.00;;;18.70;96.60;;;;;;5027448;28;20025;-66
2021/09/17 01:30:53;;;;;;;5.40;2.90;;;18.70;96.60;;;;;;5012215;28;20467;-66
2021/09/17 01:33:19;;;;;;;3.13;1.67;;;18.60;96.50;;;;;;5023335;28;20477;-66
2021/09/17 01:35:44;;;;;;;3.75;1.67;;;18.60;96.50;;;;;;5047187;28;20044;-66
2021/09/17 01:38:11;;;;;;;5.00;1.77;;;18.60;96.50;;;;;;5029314;28;20079;-66
2021/09/17 01:40:37;;;;;;;3.15;1.80;;;18.60;96.60;;;;;;5031221;28;20060;-66
2021/09/17 01:43:02;;;;;;;3.92;2.10;;;18.60;96.60;;;;;;5032192;28;20061;-66
2021/09/17 01:45:28;;;;;;;3.10;1.60;;;18.60;96.70;;;;;;5051466;28;20052;-65
2021/09/17 01:47:53;;;;;;;4.68;2.00;;;18.60;96.70;;;;;;5034455;28;20410;-65
2021/09/17 01:50:19;;;;;;;4.72;2.13;;;18.60;96.70;;;;;;5048690;28;20078;-65
2021/09/17 01:52:45;;;;;;;4.30;2.15;;;18.60;96.70;;;;;;5030963;28;20474;-64
2021/09/17 01:55:10;;;;;;;4.88;1.75;;;18.60;96.70;;;;;;5049211;28;20056;-64
2021/09/17 01:57:37;;;;;;;4.85;2.08;;;18.60;96.70;;;;;;5029790;28;20069;-65
2021/09/17 02:00:05;;;;;;;3.80;1.90;;;18.60;96.70;;;;;;5033160;28;20037;-65
2021/09/17 02:02:31;;;;;;;5.47;2.00;;;18.50;96.70;;;;;;5030423;28;20025;-64
2021/09/17 02:04:56;;;;;;;3.63;1.60;;;18.50;96.70;;;;;;5048473;28;20119;-64
2021/09/17 02:07:22;;;;;;;4.75;1.50;;;18.50;96.70;;;;;;5031414;28;20026;-64
2021/09/17 02:09:47;;;;;;;6.60;1.80;;;18.50;96.70;;;;;;5030531;28;20038;-64
2021/09/17 02:12:13;;;;;;;4.03;1.80;;;18.50;96.60;;;;;;5030610;28;20501;-64
2021/09/17 02:14:39;;;;;;;3.70;1.50;;;18.50;96.60;;;;;;5045956;28;20041;-64
2021/09/17 02:17:04;;;;;;;5.82;2.50;;;18.60;96.60;;;;;;5036648;28;20041;-65
2021/09/17 02:19:30;;;;;;;4.18;1.63;;;18.50;96.50;;;;;;5030321;28;20029;-65
2021/09/17 02:21:55;;;;;;;3.50;1.60;;;18.50;96.50;;;;;;5030556;28;20027;-65
2021/09/17 02:24:22;;;;;;;4.13;1.70;;;18.50;96.60;;;;;;5042901;28;20033;-65
2021/09/17 02:26:47;;;;;;;4.03;2.17;;;18.50;96.60;;;;;;5038988;28;20041;-64
2021/09/17 02:29:13;;;;;;;3.88;1.60;;;18.50;96.60;;;;;;5032624;28;20079;-64
2021/09/17 02:31:38;;;;;;;3.35;1.80;;;18.50;96.60;;;;;;5030528;28;20591;-64
2021/09/17 02:34:04;;;;;;;3.38;1.80;;;18.40;96.60;;;;;;5030283;28;20474;-64
2021/09/17 02:36:29;;;;;;;2.42;1.60;;;18.50;96.70;;;;;;5030393;28;20065;-64
2021/09/17 02:38:55;;;;;;;4.03;1.83;;;18.40;96.70;;;;;;5025959;28;20030;-64
2021/09/17 02:41:20;;;;;;;4.50;1.85;;;18.50;96.70;;;;;;5011540;28;20049;-65
2021/09/17 02:43:46;;;;;;;6.32;2.03;;;18.50;96.80;;;;;;5032121;28;20120;-64
2021/09/17 02:46:11;;;;;;;3.45;1.73;;;18.50;96.80;;;;;;5033133;28;20382;-64
2021/09/17 02:48:38;;;;;;;5.10;1.90;;;18.40;96.80;;;;;;5033469;28;20477;-64
2021/09/17 02:51:03;;;;;;;4.00;1.90;;;18.40;96.80;;;;;;5034758;28;20057;-65
2021/09/17 02:53:29;;;;;;;6.20;1.88;;;18.40;96.90;;;;;;5033344;28;20544;-65
2021/09/17 02:55:54;;;;;;;7.60;2.47;;;18.40;96.90;;;;;;5047471;28;20159;-65
2021/09/17 02:58:20;;;;;;;4.53;2.00;;;18.40;96.80;;;;;;5033170;28;20044;-65
2021/09/17 03:00:45;;;;;;;4.53;1.67;;;18.40;96.80;;;;;;5034194;28;20053;-65
2021/09/17 03:03:11;;;;;;;5.18;1.90;;;18.40;96.80;;;;;;5035238;28;20417;-63
2021/09/17 03:05:37;;;;;;;6.20;1.85;;;18.40;96.80;;;;;;5053241;28;20021;-64
2021/09/17 03:08:02;;;;;;;5.88;1.77;;;18.40;96.80;;;;;;5043509;28;20018;-64
2021/09/17 03:10:28;;;;;;;3.72;1.73;;;18.40;96.70;;;;;;5033228;28;20173;-65
2021/09/17 03:12:53;;;;;;;5.30;1.52;;;18.40;96.70;;;;;;5033159;28;20029;-64
2021/09/17 03:15:19;;;;;;;3.22;1.95;;;18.40;96.70;;;;;;5034137;28;20057;-64
2021/09/17 03:17:44;;;;;;;5.22;1.65;;;18.40;96.70;;;;;;5032834;28;20081;-64
2021/09/17 03:20:11;;;;;;;4.95;1.90;;;18.40;96.80;;;;;;5053736;28;20029;-65
2021/09/17 03:22:36;;;;;;;4.95;1.80;;;18.40;96.90;;;;;;5048625;28;20029;-64
2021/09/17 03:25:03;;;;;;;3.17;1.60;;;18.40;96.90;;;;;;5041003;28;20485;-64
2021/09/17 03:27:29;;;;;;;3.25;1.40;;;18.40;96.90;;;;;;5051262;28;20021;-64
2021/09/17 03:29:54;;;;;;;3.80;1.77;;;18.40;96.80;;;;;;5050180;28;20036;-64
2021/09/17 03:32:20;;;;;;;5.82;1.60;;;18.40;96.80;;;;;;5033829;28;20030;-64
2021/09/17 03:34:46;;;;;;;2.42;1.55;;;18.30;96.80;;;;;;5033285;28;20033;-64
2021/09/17 03:37:12;;;;;;;4.82;1.58;;;18.30;96.90;;;;;;5036079;28;20032;-64
2021/09/17 03:39:38;;;;;;;3.10;1.50;;;18.30;96.90;;;;;;5036433;28;20033;-64
2021/09/17 03:42:04;;;;;;;3.63;2.03;;;18.30;96.90;;;;;;5031921;28;20048;-64
2021/09/17 03:44:29;;;;;;;2.08;1.77;;;18.30;96.90;;;;;;5046853;28;20025;-65
2021/09/17 03:46:55;;;;;;;3.90;1.52;;;18.20;96.90;;;;;;5036559;28;20029;-64
2021/09/17 03:49:21;;;;;;;6.00;2.17;;;18.20;97.00;;;;;;5032908;28;20037;-64
2021/09/17 03:51:46;;;;;;;4.35;1.90;;;18.20;97.00;;;;;;5020496;28;20117;-65
2021/09/17 03:54:12;;;;;;;3.55;1.60;;;18.20;97.00;;;;;;5037936;28;20041;-65
2021/09/17 03:56:37;;;;;;;2.67;1.38;;;18.20;97.00;;;;;;5040526;28;20037;-65
2021/09/17 03:59:03;;;;;;;5.78;1.67;;;18.10;97.00;;;;;;5032734;28;20486;-64
2021/09/17 04:01:28;;;;;;;5.00;1.75;;;18.10;96.90;;;;;;5032558;28;20474;-65
2021/09/17 04:03:54;;;;;;;3.85;1.77;;;18.10;96.90;;;;;;5042064;28;20086;-65
2021/09/17 04:06:19;;;;;;;3.45;1.60;;;18.10;97.00;;;;;;5043819;28;20104;-64
2021/09/17 04:08:45;;;;;;;3.50;1.70;;;18.10;96.90;;;;;;5032584;28;20026;-64
2021/09/17 04:11:10;;;;;;;4.95;1.85;;;18.10;96.90;;;;;;5027470;28;20049;-65
2021/09/17 04:13:36;;;;;;;4.85;2.13;;;18.10;96.90;;;;;;5027905;28;20029;-65
2021/09/17 04:16:01;;;;;;;2.80;1.65;;;18.10;97.00;;;;;;5033011;28;20465;-64
2021/09/17 04:18:27;;;;;;;2.85;1.52;;;18.10;97.00;;;;;;5036895;28;20435;-64
2021/09/17 04:20:52;;;;;;;2.15;1.30;;;18.10;97.10;;;;;;5052909;28;20037;-64
2021/09/17 04:23:18;;;;;;;3.17;1.90;;;18.10;97.10;;;;;;5039791;28;20036;-65
2021/09/17 04:25:43;;;;;;;2.00;1.33;;;18.00;97.10;;;;;;5042064;28;20032;-65
2021/09/17 04:28:09;;;;;;;3.60;1.42;;;18.00;97.00;;;;;;5034213;28;20025;-64
2021/09/17 04:30:34;;;;;;;3.08;1.45;;;18.00;97.00;;;;;;5032894;28;20063;-65
2021/09/17 04:33:00;;;;;;;6.03;2.08;;;17.90;96.90;;;;;;5031412;28;20098;-64
2021/09/17 04:35:26;;;;;;;1.95;1.23;;;17.90;97.00;;;;;;5032437;28;20047;-65
2021/09/17 04:37:56;;;;;;;2.47;1.38;;;17.90;97.00;;;;;;5029366;28;20481;-65
2021/09/17 04:40:23;;;;;;;2.25;1.17;;;17.80;97.00;;;;;;5018151;28;20034;-65
2021/09/17 04:42:49;;;;;;;4.35;1.40;;;17.80;97.10;;;;;;5032802;28;20493;-65
2021/09/17 04:45:15;;;;;;;2.40;1.33;;;17.80;97.10;;;;;;5032797;28;20068;-64
2021/09/17 04:47:41;;;;;;;3.25;1.38;;;17.70;97.20;;;;;;5027746;28;20065;-64
2021/09/17 04:50:07;;;;;;;1.83;1.17;;;17.70;97.20;;;;;;5032412;28;20057;-64
2021/09/17 04:52:33;;;;;;;2.95;1.33;;;17.70;97.30;;;;;;5030261;28;20519;-64
2021/09/17 04:55:01;;;;;;;2.08;1.30;;;17.70;97.30;;;;;;5048020;28;20080;-64
2021/09/17 04:57:27;;;;;;;2.38;1.20;;;17.70;97.40;;;;;;5049540;28;20025;-64
2021/09/17 04:59:53;;;;;;;5.15;1.67;;;17.70;97.40;;;;;;5049042;28;20039;-65
2021/09/17 05:02:18;;;;;;;2.88;1.58;;;17.80;97.40;;;;;;5042939;28;20025;-64
2021/09/17 05:04:44;;;;;;;5.65;1.75;;;17.70;97.30;;;;;;5031177;28;20482;-65
2021/09/17 05:07:11;;;;;;;1.52;1.15;;;17.70;97.20;;;;;;5030473;28;20021;-67
2021/09/17 05:09:37;;;;;;;2.42;1.30;;;17.70;97.20;;;;;;5030611;28;20112;-68
2021/09/17 05:12:02;;;;;;;2.92;1.48;;;17.70;97.20;;;;;;5031292;28;20105;-66
2021/09/17 05:14:28;;;;;;;2.13;1.13;;;17.70;97.20;;;;;;5038566;28;20038;-67
2021/09/17 05:16:53;;;;;;;2.67;1.27;;;17.70;97.20;;;;;;5032111;28;20493;-69
2021/09/17 05:19:23;;;;;;;1.63;1.02;;;17.70;97.10;;;;;;5039080;28;20029;-67
2021/09/17 05:21:50;;;;;;;2.22;1.15;;;17.70;97.10;;;;;;5032126;28;20024;-66
2021/09/17 05:24:15;;;;;;;1.98;1.10;;;17.70;97.10;;;;;;5029466;28;20037;-67
2021/09/17 05:26:40;;;;;;;3.05;1.15;;;17.70;97.00;;;;;;5018577;28;20044;-67
2021/09/17 05:29:06;;;;;;;2.50;1.10;;;17.70;96.80;;;;;;5030305;28;20034;-66
2021/09/17 05:31:32;;;;;;;4.38;1.30;;;17.70;96.70;;;;;;5029989;28;20022;-49
2021/09/17 05:33:57;;;;;;;2.75;1.33;;;17.60;96.80;;;;;;5039322;28;20036;-65
2021/09/17 05:36:23;;;;;;;1.80;1.17;;;17.60;96.80;;;;;;5042449;28;20039;-65
2021/09/17 05:38:48;;;;;;;1.42;0.88;;;17.60;96.80;;;;;;5040272;28;20014;-65
2021/09/17 05:41:15;;;;;;;4.47;1.15;;;17.60;96.60;;;;;;5030557;28;20103;-64
2021/09/17 05:43:40;;;;;;;3.38;1.10;;;17.60;96.50;;;;;;5026513;28;20025;-64
2021/09/17 05:46:06;;;;;;;1.10;0.88;;;17.60;96.30;;;;;;5037445;28;20083;-64
2021/09/17 05:48:31;;;;;;;2.60;0.98;;;17.60;96.20;;;;;;5035751;28;20021;-66
2021/09/17 05:50:57;;;;;;;1.58;0.60;;;17.50;96.20;;;;;;5030111;28;20489;-64
2021/09/17 05:53:22;;;;;;;1.55;0.95;;;17.60;96.20;;;;;;5035797;28;20467;-64
2021/09/17 05:55:48;;;;;;;0.98;0.80;;;17.50;96.00;;;;;;5036953;28;20040;-64
2021/09/17 05:58:13;;;;;;;2.00;0.68;;;17.40;96.00;;;;;;5030460;28;20047;-64
2021/09/17 06:00:39;;;;;;;4.22;1.20;;;17.40;96.10;;;;;;5028628;28;20570;-65
2021/09/17 06:03:04;;;;;;;0.98;0.70;;;17.40;96.20;;;;;;5031147;28;20033;-65
2021/09/17 06:05:30;;;;;;;1.80;0.70;;;17.50;96.10;;;;;;5035577;28;20504;-64
2021/09/17 06:07:55;;;;;;;9.18;1.30;;;17.50;95.90;;;;;;5036456;28;20041;-65
2021/09/17 06:10:21;;;;;;;1.65;0.73;;;17.50;95.90;;;;;;5044609;28;20507;-65
2021/09/17 06:12:46;;;;;;;2.60;0.82;;;17.50;95.90;;;;;;5041665;28;20025;-65
2021/09/17 06:15:15;;;;;;;2.00;0.70;;;17.40;95.90;;;;;;5028420;28;20039;-65
2021/09/17 06:17:41;;;;;;;1.27;0.70;;;17.40;95.80;;;;;;5028317;28;20028;-66
2021/09/17 06:20:08;;;;;;;2.78;1.20;;;17.30;95.80;;;;;;5039643;28;20037;-64
2021/09/17 06:22:33;;;;;;;0.63;0.60;;;17.30;95.80;;;;;;5039406;28;20041;-64
2021/09/17 06:24:59;;;;;;;1.63;0.75;;;17.40;95.80;;;;;;5032793;28;20033;-64
2021/09/17 06:27:24;;;;;;;0.73;0.60;;;17.50;95.80;;;;;;5033756;28;20029;-66
2021/09/17 06:29:50;;;;;;;2.30;0.63;;;17.50;95.80;;;;;;5047354;28;20036;-63
2021/09/17 06:32:15;;;;;;;2.08;0.90;;;17.50;95.70;;;;;;5035878;28;20067;-64
2021/09/17 06:34:40;;;;;;;2.22;0.80;;;17.60;95.60;;;;;;5049940;28;20029;-66
2021/09/17 06:37:06;;;;;;;3.90;0.85;;;17.50;95.70;;;;;;5042976;28;20037;-65
2021/09/17 06:39:32;;;;;;;0.98;0.65;;;17.50;95.70;;;;;;5035294;28;20469;-65
2021/09/17 06:41:59;;;;;;;2.10;0.70;;;17.60;95.60;;;;;;5028607;28;20398;-65
2021/09/17 06:44:25;;;;;;;1.65;0.93;;;17.60;95.60;;;;;;5034849;28;20132;-65
2021/09/17 06:46:50;;;;;;;1.98;0.90;;;17.60;95.40;;;;;;5039486;28;20458;-65
2021/09/17 06:49:15;;;;;;;3.00;0.80;;;17.60;95.40;;;;;;5034961;28;20029;-66
2021/09/17 06:51:41;;;;;;;2.42;0.90;;;17.70;95.50;;;;;;5042833;28;20405;-66
2021/09/17 06:54:07;;;;;;;4.40;0.75;;;17.70;95.30;;;;;;5031536;28;20029;-65
2021/09/17 06:56:32;;;;;;;2.45;0.77;;;17.80;95.20;;;;;;5034831;28;20061;-66
2021/09/17 06:58:58;;;;;;;1.20;0.68;;;17.80;95.20;;;;;;5038470;28;20108;-66
2021/09/17 07:01:25;;;;;;;1.63;0.95;;;17.80;95.00;;;;;;5039166;28;20544;-66
2021/09/17 07:03:51;;;;;;;4.03;1.10;;;17.80;95.00;;;;;;5032928;28;20096;-65
2021/09/17 07:06:16;;;;;;;2.47;1.05;;;17.90;94.90;;;;;;5039967;28;20428;-65
2021/09/17 07:08:42;;;;;;;1.95;0.80;;;17.90;94.80;;;;;;5025011;28;20071;-65
2021/09/17 07:11:07;;;;;;;1.83;0.80;;;17.90;94.80;;;;;;5040744;28;20390;-65
2021/09/17 07:13:33;;;;;;;1.10;0.70;;;17.90;94.70;;;;;;5038343;28;20059;-65
2021/09/17 07:15:58;;;;;;;2.05;0.82;;;17.90;94.70;;;;;;5039977;28;20033;-65
2021/09/17 07:18:24;;;;;;;1.77;0.70;;;18.00;94.60;;;;;;5044030;28;20409;-65
2021/09/17 07:20:50;;;;;;;3.72;1.30;;;17.90;94.50;;;;;;5031743;28;20452;-65
2021/09/17 07:23:16;;;;;;;3.15;0.93;;;18.00;94.90;;;;;;5044586;28;20032;-66
2021/09/17 07:25:42;;;;;;;2.42;0.93;;;18.10;94.80;;;;;;5032889;28;20025;-65
2021/09/17 07:28:07;;;;;;;2.17;0.90;;;18.20;94.60;;;;;;5032597;28;20064;-66
2021/09/17 07:30:33;;;;;;;3.08;1.05;;;18.20;94.30;;;;;;5033267;28;20382;-65
2021/09/17 07:32:59;;;;;;;4.63;1.00;;;18.20;94.20;;;;;;5033175;28;20045;-65
2021/09/17 07:35:25;;;;;;;0.82;0.70;;;18.30;94.20;;;;;;5014523;28;20033;-65
2021/09/17 07:37:50;;;;;;;2.30;0.90;;;18.30;93.90;;;;;;5031207;28;20417;-65
2021/09/17 07:40:17;;;;;;;1.75;0.98;;;18.40;93.90;;;;;;5031817;28;20532;-65
2021/09/17 07:42:44;;;;;;;2.72;0.90;;;18.40;93.90;;;;;;5016512;28;20064;-65
2021/09/17 07:45:10;;;;;;;2.35;0.93;;;18.40;93.60;;;;;;5039521;28;20048;-66
2021/09/17 07:47:36;;;;;;;2.13;1.00;;;18.40;93.70;;;;;;5031907;28;20025;-66
2021/09/17 07:50:02;;;;;;;2.55;1.00;;;18.40;93.70;;;;;;5030150;28;20040;-66
2021/09/17 07:52:27;;;;;;;1.73;0.90;;;18.40;93.40;;;;;;5033539;28;20087;-66
2021/09/17 07:54:53;;;;;;;1.45;0.90;;;18.40;93.60;;;;;;5033551;28;20485;-65
2021/09/17 07:57:18;;;;;;;1.52;1.08;;;18.50;93.80;;;;;;5031521;28;20038;-65
2021/09/17 07:59:44;;;;;;;1.25;0.73;;;18.60;93.50;;;;;;5033288;28;20029;-65
2021/09/17 08:02:09;;;;;;;2.20;1.10;;;18.70;93.30;;;;;;5031284;28;20029;-65
2021/09/17 08:04:38;;;;;;;1.58;1.17;;;18.70;93.00;;;;;;5033189;28;20108;-65
2021/09/17 08:07:05;;;;;;;3.38;0.90;;;18.80;92.60;;;;;;5032703;28;20025;-65
2021/09/17 08:09:31;;;;;;;1.88;0.75;;;18.80;92.30;;;;;;5029506;28;20112;-65
2021/09/17 08:11:56;;;;;;;0.88;0.80;;;18.80;92.30;;;;;;5038509;28;20022;-65
2021/09/17 08:14:22;;;;;;;2.30;0.80;;;18.90;92.30;;;;;;5033466;28;20442;-65
2021/09/17 08:16:47;;;;;;;1.90;0.88;;;18.90;92.00;;;;;;5042724;28;20477;-64
2021/09/17 08:19:13;;;;;;;9.88;1.25;;;18.90;91.80;;;;;;5043284;28;20032;-67
2021/09/17 08:21:41;;;;;;;3.08;0.90;;;19.00;92.00;;;;;;5037964;28;20033;-67
2021/09/17 08:24:13;;;;;;;0.57;0.57;;;19.00;92.00;;;;;;5047226;28;20117;-66
2021/09/17 08:26:40;;;;;;;3.45;1.08;;;19.10;91.70;;;;;;5035396;28;20123;-66
2021/09/17 08:29:05;;;;;;;0.80;0.73;;;19.10;91.40;;;;;;5036219;28;20029;-67
2021/09/17 08:31:31;;;;;;;1.50;0.68;;;19.20;91.50;;;;;;5038912;28;20045;-67
2021/09/17 08:33:56;;;;;;;1.05;0.77;;;19.20;91.30;;;;;;5037658;28;20076;-66
2021/09/17 08:36:22;;;;;;;1.38;0.70;;;19.20;91.30;;;;;;5032143;28;20037;-66
2021/09/17 08:38:47;;;;;;;1.65;0.60;;;19.20;91.20;;;;;;5037891;28;20028;-67
2021/09/17 08:41:15;;;;;;;0.55;0.45;;;19.30;90.90;;;;;;5026645;28;20025;-66
2021/09/17 08:43:43;;;;;;;1.02;0.68;;;19.30;90.80;;;;;;5030363;28;20040;-67
2021/09/17 08:46:12;;;;;;;4.93;1.17;;;19.40;90.80;;;;;;5043050;28;20021;-66
2021/09/17 08:48:38;;;;;;;0.85;0.60;;;19.50;90.60;;;;;;5036329;28;20061;-67
2021/09/17 08:51:04;;;;;;;0.98;0.80;;;19.40;90.70;;;;;;5034702;28;20440;-65
2021/09/17 08:53:29;;;;;;;1.27;0.75;;;19.50;90.60;;;;;;5035491;28;20026;-65
2021/09/17 08:55:59;;;;;;;1.33;0.75;;;19.50;90.40;;;;;;5037431;28;20117;-66
2021/09/17 08:58:24;;;;;;;0.98;0.70;;;19.50;90.30;;;;;;5030348;28;20025;-66
2021/09/17 09:00:50;;;;;;;1.00;0.60;;;19.50;90.30;;;;;;5037814;28;20033;-65
2021/09/17 09:03:33;;;;;;;1.20;0.73;;;19.50;90.20;;;;;;5041463;28;20070;-65
2021/09/17 09:06:13;;;;;;;1.83;1.00;;;19.50;90.30;;;;;;5034425;28;20022;-66
2021/09/17 09:08:41;;;;;;;2.42;1.08;;;19.60;90.30;;;;;;5035682;28;20033;-65
2021/09/17 09:11:21;;;;;;;1.35;0.60;;;19.60;90.20;;;;;;5030880;28;20037;-66
2021/09/17 09:14:07;;;;;;;1.13;0.95;;;19.70;90.10;;;;;;5034238;28;20032;-65
2021/09/17 09:16:34;;;;;;;3.05;1.17;;;19.70;90.00;;;;;;5024216;28;20033;-65
2021/09/17 09:19:29;;;;;;;2.22;0.80;;;19.80;89.40;;;;;;5029076;28;20100;-66
2021/09/17 09:22:03;;;;;;;1.60;0.80;;;19.80;89.30;;;;;;5025561;28;20029;-66
2021/09/17 09:24:33;;;;;;;;;;;19.80;89.00;;;;;;5028262;28;20052;-66
2021/09/17 09:27:20;;;;;;;1.10;0.80;;;19.80;89.10;;;;;;5035122;28;19955;-66
2021/09/17 09:29:51;;;;;;;1.67;1.25;;;19.80;89.60;;;;;;5027471;28;20033;-67
2021/09/17 09:32:27;;;;;;;0.95;0.47;;;19.80;89.30;;;;;;5027963;28;20100;-66
2021/09/17 09:34:57;;;;;;;2.28;1.02;;;19.80;89.60;;;;;;5030933;28;20041;-66
2021/09/17 09:37:26;;;;;;;4.70;1.00;;;19.80;89.70;;;;;;5032499;28;20021;-66
2021/09/17 09:40:11;;;;;;;3.10;1.13;;;19.80;90.00;;;;;;5037625;28;20029;-66
2021/09/17 09:42:39;;;;;;;1.38;0.80;;;19.90;90.10;;;;;;5028039;28;20053;-66
2021/09/17 09:45:16;;;;;;;1.77;0.75;;;19.80;89.70;;;;;;5032308;28;20033;-66
2021/09/17 09:47:44;;;;;;;3.30;1.13;;;19.90;89.40;;;;;;5018864;28;20087;-66
2021/09/17 09:50:13;;;;;;;4.05;1.02;;;19.80;89.50;;;;;;5036526;28;20037;-66
2021/09/17 09:52:39;;;;;;;3.15;1.23;;;19.90;89.80;;;;;;5029967;28;20373;-65
2021/09/17 09:55:06;;;;;;;0.98;0.73;;;19.90;89.50;;;;;;5028559;28;20046;-65
2021/09/17 09:57:33;;;;;;;3.95;1.20;;;19.90;89.70;;;;;;5029442;28;20049;-66
2021/09/17 10:00:02;;;;;;;2.00;1.38;;;20.00;89.50;;;;;;5029038;28;20025;-67
2021/09/17 10:02:28;;;;;;;3.28;1.60;;;20.00;89.40;;;;;;5038604;28;20394;-66
2021/09/17 10:04:57;;;;;;;2.63;1.30;;;20.10;89.80;;;;;;5030608;28;20040;-66
2021/09/17 10:07:25;;;;;;;1.15;0.93;;;20.10;89.70;;;;;;5032425;28;20021;-66
2021/09/17 10:09:50;;;;;;;2.28;0.90;;;20.20;89.30;;;;;;5030707;28;20033;-66
2021/09/17 10:12:16;;;;;;;1.58;0.90;;;20.20;88.70;;;;;;5026818;28;20501;-66
2021/09/17 10:14:44;;;;;;;3.08;0.98;;;20.20;88.50;;;;;;5040252;28;20044;-67
2021/09/17 10:17:31;;;;;;;2.42;0.95;;;20.30;88.70;;;;;;5027199;28;20080;-66
2021/09/17 10:19:59;;;;;;;2.00;0.80;;;20.30;88.50;;;;;;5038876;28;20053;-66
2021/09/17 10:22:37;;;;;;;3.22;1.00;;;20.30;88.30;;;;;;5028765;28;20029;-66
2021/09/17 10:25:12;;;;;;;1.65;1.02;;;20.30;88.70;;;;;;5031567;28;20515;-66
2021/09/17 10:27:39;;;;;;;;;;;20.40;88.40;;;;;;5035510;28;20092;-65
2021/09/17 10:30:10;;;;;;;1.90;1.08;;;20.40;88.80;;;;;;5029130;28;19966;-64
2021/09/17 10:32:45;;;;;;;3.60;1.27;;;20.40;88.60;;;;;;5036201;28;20060;-66
2021/09/17 10:35:15;;;;;;;2.95;1.08;;;20.50;88.50;;;;;;5030891;28;20460;-65
2021/09/17 10:38:04;;;;;;;1.85;1.17;;;20.50;88.30;;;;;;5034061;28;20049;-64
2021/09/17 10:40:54;;;;;;;2.17;0.90;;;20.50;88.20;;;;;;5027671;28;20033;-64
2021/09/17 10:43:24;;;;;;;3.70;0.93;;;20.50;88.00;;;;;;5027158;28;20029;-65
2021/09/17 10:45:55;;;;;;;1.60;0.88;;;20.40;88.00;;;;;;5028091;28;20052;-65
2021/09/17 10:48:30;;;;;;;1.75;1.10;;;20.40;87.90;;;;;;5033365;28;20121;-65
2021/09/17 10:50:57;;;;;;;;;;;20.40;87.90;;;;;;5030973;28;20377;-65
2021/09/17 10:53:41;;;;;;;1.40;0.80;;;20.30;87.90;;;;;;5035071;28;19915;-65
2021/09/17 10:56:11;;;;;;;1.33;0.80;;;20.30;87.50;;;;;;5030366;28;20103;-65
2021/09/17 10:58:44;;;;;;;2.13;0.75;;;20.20;87.70;;;;;;5030219;28;20029;-65
2021/09/17 11:01:12;;;;;;;0.80;0.70;;;20.20;87.70;;;;;;5031004;28;20037;-65
2021/09/17 11:03:46;;;;;;;1.05;0.77;;;20.20;88.10;;;;;;5036747;28;20083;-65
2021/09/17 11:06:18;;;;;;;;;;;20.20;88.30;;;;;;5041683;28;20037;-65
2021/09/17 11:08:54;;;;;;;4.45;1.63;;;20.20;88.70;;;;;;5029890;28;19916;-65
2021/09/17 11:11:28;;;;;;;3.90;0.95;;;20.10;87.60;;;;;;5043403;28;20028;-65
2021/09/17 11:13:55;;;;;;;;;;;20.10;88.10;;;;;;5030294;28;20036;-64
2021/09/17 11:16:23;;;;;;;1.20;0.90;;;20.00;88.30;;;;;;5038083;28;20102;-64
2021/09/17 11:19:01;;;;;;;1.40;1.17;;;20.00;88.10;;;;;;5036311;28;20504;-65
2021/09/17 11:21:35;;;;;;;0.88;0.80;;;20.00;87.50;;;;;;5033913;28;20488;-65
2021/09/17 11:24:02;;;;;;;1.58;1.08;;;19.90;87.80;;;;;;5032579;28;20041;-65
2021/09/17 11:26:35;;;;;;;1.30;0.93;;;19.90;89.00;;;;;;5033388;28;20033;-65
2021/09/17 11:29:02;;;;;;;1.50;0.80;;;19.90;88.40;;;;;;5033488;28;20038;-65
2021/09/17 11:31:32;;;;;;;2.38;0.90;;;20.00;88.60;;;;;;5026855;28;20474;-65
2021/09/17 11:34:02;;;;;;;1.30;0.90;;;20.10;88.20;;;;;;5040853;28;20198;-65
2021/09/17 11:36:37;;;;;;;1.42;0.85;;;20.20;88.20;;;;;;5036712;28;20042;-66
2021/09/17 11:39:22;;;;;;;2.53;1.20;;;20.20;87.80;;;;;;5033007;28;20076;-66
2021/09/17 11:42:02;;;;;;;0.55;0.52;;;20.20;87.60;;;;;;5028616;28;20064;-65
2021/09/17 11:44:39;;;;;;;0.90;0.60;;;20.20;87.40;;;;;;5040073;28;20120;-65
2021/09/17 11:47:07;;;;;;;1.20;1.10;;;20.20;87.00;;;;;;5033690;28;20029;-65
2021/09/17 11:49:37;;;;;;;5.53;1.00;;;20.00;87.40;;;;;;5037728;28;20127;-66
2021/09/17 11:52:06;;;;;;;1.23;0.80;;;20.00;87.20;;;;;;5028561;28;20049;-65
2021/09/17 11:54:32;;;;;;;0.82;0.60;;;19.90;86.90;;;;;;5035911;28;20037;-65
2021/09/17 11:57:04;;;;;;;1.63;0.63;;;19.90;87.10;;;;;;5032317;28;20029;-65
2021/09/17 11:59:40;;;;;;;1.23;1.00;;;19.90;86.20;;;;;;5028007;28;20026;-66
2021/09/17 12:02:21;;;;;;;2.42;0.60;;;19.70;87.10;;;;;;5035047;28;20041;-65
2021/09/17 12:04:56;;;;;;;0.68;0.68;;;19.60;86.30;;;;;;5040225;28;20021;-65
2021/09/17 12:07:23;;;;;;;1.25;0.95;;;19.50;87.00;;;;;;5027740;28;20061;-65
2021/09/17 12:09:49;;;;;;;2.35;1.15;;;19.50;87.00;;;;;;5031933;28;20037;-65
2021/09/17 12:12:14;;;;;;;2.08;0.82;;;19.50;87.40;;;;;;5037612;28;20527;-65
2021/09/17 12:14:50;;;;;;;1.35;0.77;;;19.50;87.20;;;;;;5036474;28;20410;-65
2021/09/17 12:17:15;;;;;;;1.83;1.15;;;19.50;86.80;;;;;;5031241;28;20032;-65
2021/09/17 12:20:04;;;;;;;1.25;0.75;;;19.40;87.30;;;;;;5031801;28;20037;-66
2021/09/17 12:22:39;;;;;;;2.15;0.60;;;19.40;87.30;;;;;;5030209;28;20104;-66
2021/09/17 12:25:06;;;;;;;;;;;19.40;88.00;;;;;;5028640;28;20286;-64
2021/09/17 12:27:32;;;;;;;1.10;0.82;;;19.40;88.00;;;;;;5025782;28;19913;-65
2021/09/17 12:30:05;;;;;;;1.88;1.27;;;19.40;88.10;;;;;;5034552;28;20033;-65
2021/09/17 12:32:31;;;;;;;3.58;1.30;;;19.40;87.70;;;;;;5028760;28;20478;-65
2021/09/17 12:35:17;;;;;;;3.38;1.30;;;19.40;87.90;;;;;;5045683;28;20032;-65
2021/09/17 12:37:53;;;;;;;1.77;0.90;;;19.50;87.90;;;;;;5036124;28;20029;-66
2021/09/17 12:40:22;;;;;;;1.23;0.90;;;19.50;87.30;;;;;;5034701;28;20030;-65
2021/09/17 12:43:05;;;;;;;1.02;0.80;;;19.50;86.70;;;;;;5037068;28;20017;-65
2021/09/17 12:45:31;;;;;;;1.25;0.80;;;19.60;86.80;;;;;;5034788;28;21034;-64
2021/09/17 12:47:59;;;;;;;1.80;0.77;;;19.70;86.50;;;;;;5036347;28;20032;-65
2021/09/17 12:50:41;;;;;;;6.00;2.17;;;19.70;86.10;;;;;;5025895;28;20041;-65